Time;durP1;ratioP1;P1;durP2;ratioP2;P2;SDS_P1;SDS_P2;PMS_P1;PMS_P2;Temp;Humidity;BMP_temperature;BMP_pressure;BME280_temperature;BME280_humidity;BME280_pressure;Samples;Min_cycle;Max_cycle;Signal;HPM_P1;HPM_P2
2021/12/16 00:01:57;;;;;;;16.80;11.38;;;;;;;8.61;98.17;101342.63;5053906;28;20056;-50
2021/12/16 00:09:42;;;;;;;14.20;10.00;;;;;;;8.68;98.03;101364.47;5041566;28;20112;-49
2021/12/16 00:34:02;;;;;;;15.55;10.23;;;;;;;8.61;100.00;101359.19;5053978;28;20147;-52
2021/12/16 00:36:39;;;;;;;13.60;9.82;;;;;;;8.66;99.34;101358.34;5046654;28;20071;-50
2021/12/16 00:39:14;;;;;;;14.38;9.57;;;;;;;8.71;98.99;101357.50;5040662;28;20029;-50
2021/12/16 00:41:43;;;;;;;14.00;9.60;;;;;;;8.72;99.39;101361.84;5033820;28;20116;-49
2021/12/16 00:49:22;;;;;;;13.90;10.23;;;;;;;8.66;99.60;101347.84;5040132;28;20112;-49
2021/12/16 00:54:34;;;;;;;13.80;9.25;;;;;;;8.67;99.86;101362.72;5033730;28;20385;-50
2021/12/16 00:57:06;;;;;;;14.23;9.57;;;;;;;8.59;100.00;101366.19;5038409;28;20418;-49
2021/12/16 00:59:36;;;;;;;14.23;9.27;;;;;;;8.61;100.00;101364.44;5052719;28;20078;-51
2021/12/16 01:37:56;;;;;;;8.88;6.93;;;;;;;8.49;100.00;101380.13;5049011;28;20037;-50
2021/12/16 01:50:46;;;;;;;9.35;7.03;;;;;;;8.52;100.00;101374.91;5056938;28;20039;-50
2021/12/16 01:56:04;;;;;;;10.38;6.68;;;;;;;8.59;100.00;101375.81;5037004;28;20399;-54
2021/12/16 01:58:32;;;;;;;10.35;7.28;;;;;;;8.61;100.00;101374.06;5036928;28;20043;-49
2021/12/16 02:01:17;;;;;;;10.25;7.43;;;;;;;8.63;100.00;101370.56;5037061;28;20461;-53
2021/12/16 02:03:49;;;;;;;11.68;7.78;;;;;;;8.50;100.00;101371.44;5053938;28;20037;-51
2021/12/16 02:08:52;;;;;;;11.95;8.20;;;;;;;8.56;100.00;101367.94;5053709;28;20045;-51
2021/12/16 02:11:47;;;;;;;11.90;7.90;;;;;;;8.58;100.00;101355.72;5056464;28;20479;-49
2021/12/16 02:31:17;;;;;;;12.75;8.70;;;;;;;8.43;100.00;101353.06;5036304;28;20150;-51
2021/12/16 02:36:12;;;;;;;12.13;8.52;;;;;;;8.46;100.00;101374.91;5055913;28;20060;-49
2021/12/16 02:38:38;;;;;;;14.55;8.57;;;;;;;8.41;100.00;101376.63;5055971;28;20037;-50
2021/12/16 02:41:03;;;;;;;11.57;8.60;;;;;;;8.46;100.00;101358.28;5042801;28;20416;-50
2021/12/16 02:49:13;;;;;;;12.18;7.35;;;;;;;8.48;100.00;101388.88;5041390;28;20056;-51
2021/12/16 02:51:39;;;;;;;13.77;7.88;;;;;;;8.46;100.00;101382.78;5034770;28;20034;-49
2021/12/16 02:54:06;;;;;;;10.35;7.15;;;;;;;8.56;100.00;101389.75;5035477;28;20477;-48
2021/12/16 02:56:33;;;;;;;11.27;7.57;;;;;;;8.51;100.00;101401.97;5035639;28;20079;-51
2021/12/16 02:58:59;;;;;;;10.27;7.55;;;;;;;8.45;100.00;101416.78;5042528;28;20468;-49
2021/12/16 03:01:50;;;;;;;10.93;6.78;;;;;;;8.53;100.00;101408.09;5055880;28;20029;-49
2021/12/16 03:04:18;;;;;;;8.05;6.45;;;;;;;8.58;100.00;101400.25;5055117;28;20404;-51
2021/12/16 03:06:46;;;;;;;8.07;5.57;;;;;;;8.71;100.00;101390.69;5054375;28;20031;-49
2021/12/16 03:09:15;;;;;;;11.23;6.10;;;;;;;8.67;100.00;101392.41;5055443;28;20166;-49
2021/12/16 03:12:37;;;;;;;8.30;5.10;;;;;;;8.71;100.00;101395.94;5043640;28;20040;-49
2021/12/16 03:14:45;;;;;;;6.82;4.93;;;;;;;8.71;100.00;101402.03;5045732;28;20389;-49
2021/12/16 03:17:27;;;;;;;10.10;5.22;;;;;;;8.69;100.00;101393.28;5047395;28;20052;-49
2021/12/16 03:20:04;;;;;;;5.90;4.28;;;;;;;8.74;100.00;101396.81;5035189;28;20037;-49
2021/12/16 03:25:23;;;;;;;5.15;3.58;;;;;;;8.82;100.00;101391.59;5053807;28;20037;-49
2021/12/16 03:36:05;;;;;;;3.85;3.17;;;;;;;8.78;100.00;101387.22;5045346;28;20045;-51
2021/12/16 03:38:35;;;;;;;4.93;3.38;;;;;;;8.68;100.00;101386.31;5053181;28;20037;-50
2021/12/16 03:41:01;;;;;;;4.00;2.80;;;;;;;8.64;100.00;101372.31;5049081;28;20030;-50
2021/12/16 03:43:28;;;;;;;3.28;2.78;;;;;;;8.61;100.00;101384.53;5035087;28;20116;-50
2021/12/16 03:49:14;;;;;;;4.50;2.70;;;;;;;8.63;100.00;101378.44;5053283;28;20411;-50
2021/12/16 03:51:46;;;;;;;4.30;2.30;;;;;;;8.62;100.00;101374.06;5054645;28;20028;-53
2021/12/16 03:54:19;;;;;;;2.88;2.15;;;;;;;8.68;100.00;101373.19;5038367;28;20037;-52
2021/12/16 03:56:47;;;;;;;3.33;2.00;;;;;;;8.67;100.00;101374.06;5034750;28;20022;-50
2021/12/16 03:59:17;;;;;;;3.10;2.15;;;;;;;8.62;100.00;101360.97;5042250;28;20484;-50
2021/12/16 04:01:44;;;;;;;2.72;2.00;;;;;;;8.57;100.00;101364.44;5053464;28;20036;-51
2021/12/16 04:04:10;;;;;;;3.17;1.80;;;;;;;8.64;100.00;101368.81;5052431;28;20029;-50
2021/12/16 04:06:37;;;;;;;3.67;1.85;;;;;;;8.66;100.00;101367.09;5034567;28;20436;-49
2021/12/16 04:09:09;;;;;;;2.28;1.65;;;;;;;8.81;100.00;101367.09;5034419;28;20523;-51
2021/12/16 04:11:42;;;;;;;3.22;1.55;;;;;;;8.71;100.00;101365.34;5047415;28;20036;-52
2021/12/16 04:14:08;;;;;;;;;;;;;;;8.75;100.00;101389.81;5047613;28;20041;-51
2021/12/16 04:16:41;;;;;;;2.15;1.20;;;;;;;8.58;100.00;101369.69;5042289;28;19928;-50
2021/12/16 04:19:11;;;;;;;1.92;1.27;;;;;;;8.67;100.00;101386.31;5054149;28;20068;-49
2021/12/16 04:21:43;;;;;;;2.10;1.08;;;;;;;8.74;100.00;101393.31;5051825;28;20056;-49
2021/12/16 04:24:09;;;;;;;1.88;1.08;;;;;;;8.68;100.00;101411.63;5034626;28;20038;-54
2021/12/16 04:26:37;;;;;;;1.48;1.13;;;;;;;8.74;100.00;101409.03;5033817;28;20045;-50
2021/12/16 04:29:04;;;;;;;1.75;1.17;;;;;;;8.71;100.00;101406.41;5037679;28;20038;-52
2021/12/16 04:31:30;;;;;;;2.70;1.25;;;;;;;8.69;100.00;101402.88;5034067;28;20492;-50
2021/12/16 04:33:56;;;;;;;1.77;1.05;;;;;;;8.61;100.00;101406.34;5034145;28;20443;-50
2021/12/16 04:36:21;;;;;;;1.80;1.20;;;;;;;8.64;100.00;101403.75;5032653;28;20033;-53
2021/12/16 04:38:48;;;;;;;1.95;1.10;;;;;;;8.65;100.00;101428.22;5039284;28;20178;-50
2021/12/16 04:41:15;;;;;;;1.30;1.15;;;;;;;8.62;100.00;101416.00;5052208;28;20396;-50
2021/12/16 04:43:47;;;;;;;1.50;1.00;;;;;;;8.69;100.00;101402.88;5040614;28;20487;-49
2021/12/16 04:46:16;;;;;;;2.38;1.30;;;;;;;8.56;100.00;101410.72;5051164;28;20037;-51
2021/12/16 04:48:43;;;;;;;1.63;1.10;;;;;;;8.58;100.00;101405.50;5053489;28;20491;-50
2021/12/16 04:51:09;;;;;;;3.47;1.80;;;;;;;8.59;100.00;101397.63;5041069;28;20120;-51
2021/12/16 04:53:36;;;;;;;2.55;1.58;;;;;;;8.66;100.00;101395.00;5033426;28;20037;-49
2021/12/16 04:56:03;;;;;;;2.47;1.50;;;;;;;8.69;100.00;101406.38;5038284;28;20472;-50
2021/12/16 04:58:29;;;;;;;1.70;1.30;;;;;;;8.67;100.00;101409.88;5053670;28;20033;-50
2021/12/16 05:00:55;;;;;;;2.40;1.42;;;;;;;8.64;100.00;101405.50;5051678;28;20037;-49
2021/12/16 05:03:21;;;;;;;2.13;1.60;;;;;;;8.69;100.00;101393.28;5052488;28;20032;-50
2021/12/16 05:05:47;;;;;;;2.25;1.60;;;;;;;8.69;100.00;101395.91;5053507;28;20087;-52
2021/12/16 05:08:13;;;;;;;3.55;1.67;;;;;;;8.74;100.00;101409.91;5037347;28;20037;-52
2021/12/16 05:10:39;;;;;;;3.47;2.35;;;;;;;8.79;100.00;101397.69;5032453;28;20084;-50
2021/12/16 05:13:05;;;;;;;2.75;1.95;;;;;;;8.78;100.00;101408.19;5043823;28;20041;-49
2021/12/16 05:15:34;;;;;;;3.42;2.30;;;;;;;8.81;100.00;101405.53;5052097;28;20123;-52
2021/12/16 05:18:03;;;;;;;3.95;2.58;;;;;;;8.82;99.71;101407.31;5044730;28;20077;-49
2021/12/16 05:20:33;;;;;;;3.13;2.38;;;;;;;8.90;99.72;101402.94;5033340;28;20041;-49
2021/12/16 05:25:57;;;;;;;3.85;2.67;;;;;;;8.92;99.29;101397.69;5053627;28;20116;-49
2021/12/16 05:28:24;;;;;;;4.60;3.22;;;;;;;8.93;98.95;101408.16;5049596;28;20069;-52
2021/12/16 05:30:51;;;;;;;3.70;3.17;;;;;;;8.82;99.42;101412.56;5033537;28;20370;-50
2021/12/16 05:33:17;;;;;;;4.47;2.70;;;;;;;8.84;98.83;101414.28;5033167;28;20030;-50
2021/12/16 05:35:43;;;;;;;2.88;2.00;;;;;;;8.81;99.17;101414.28;5048855;28;20041;-48
2021/12/16 05:38:08;;;;;;;2.63;1.60;;;;;;;8.93;98.37;101412.53;5032011;28;20044;-49
2021/12/16 05:40:34;;;;;;;2.90;1.80;;;;;;;8.81;99.07;101410.78;5033294;28;20399;-49
2021/12/16 05:43:07;;;;;;;3.97;2.78;;;;;;;8.89;98.12;101411.66;5033130;28;20487;-48
2021/12/16 05:45:33;;;;;;;3.63;2.42;;;;;;;8.89;97.88;101398.56;5046212;28;20065;-48
2021/12/16 05:48:01;;;;;;;3.35;2.03;;;;;;;8.86;97.72;101406.44;5052827;28;20104;-49
2021/12/16 05:50:28;;;;;;;2.30;1.85;;;;;;;8.90;98.09;101387.22;5042307;28;20095;-52
2021/12/16 05:52:54;;;;;;;2.90;2.60;;;;;;;8.86;98.27;101386.34;5032821;28;20059;-51
2021/12/16 05:55:20;;;;;;;4.05;2.53;;;;;;;8.95;97.67;101390.72;5041109;28;20045;-49
2021/12/16 05:57:46;;;;;;;2.33;1.95;;;;;;;8.98;97.35;101389.84;5052859;28;20083;-49
2021/12/16 06:00:18;;;;;;;2.03;1.52;;;;;;;9.01;96.88;101389.84;5048189;28;20026;-50
2021/12/16 06:02:44;;;;;;;1.47;1.10;;;;;;;8.74;98.17;101409.91;5037030;28;20037;-49
2021/12/16 06:05:10;;;;;;;1.00;0.90;;;;;;;8.84;97.88;101413.41;5040808;28;20105;-50
2021/12/16 06:07:36;;;;;;;2.40;2.10;;;;;;;8.85;97.82;101410.78;5057131;28;20443;-50
2021/12/16 06:10:02;;;;;;;2.95;2.40;;;;;;;8.89;97.37;101409.91;5055708;28;20044;-49
2021/12/16 06:12:29;;;;;;;2.00;1.20;;;;;;;8.86;97.94;101401.19;5056521;28;20033;-53
2021/12/16 06:28:30;;;;;;;2.13;1.48;;;;;;;8.63;99.44;101457.03;5056229;28;20064;-51
2021/12/16 06:30:56;;;;;;;2.42;1.45;;;;;;;8.68;99.19;101462.28;5040368;28;20033;-51
2021/12/16 06:33:23;;;;;;;2.10;1.70;;;;;;;8.56;99.97;101457.00;5056210;28;20077;-50
2021/12/16 06:35:52;;;;;;;2.58;1.65;;;;;;;8.64;99.67;101471.88;5051966;28;20033;-52
2021/12/16 06:38:18;;;;;;;2.20;1.40;;;;;;;8.64;99.51;101471.88;5039399;28;20040;-53
2021/12/16 06:40:43;;;;;;;1.95;1.55;;;;;;;8.76;98.51;101462.31;5038462;28;20030;-51
2021/12/16 06:43:11;;;;;;;2.47;1.83;;;;;;;8.76;98.53;101465.81;5035752;28;20065;-52
2021/12/16 06:45:39;;;;;;;2.10;1.60;;;;;;;8.87;98.04;101473.69;5035756;28;20477;-53
2021/12/16 06:48:11;;;;;;;2.35;1.75;;;;;;;8.79;98.83;101475.44;5034821;28;20472;-48
2021/12/16 06:53:26;;;;;;;2.65;1.67;;;;;;;8.76;98.63;101492.00;5054759;28;20045;-49
2021/12/16 06:56:02;;;;;;;2.88;1.90;;;;;;;8.72;99.01;101486.75;5045274;28;20036;-50
2021/12/16 06:58:35;;;;;;;3.30;2.08;;;;;;;8.82;98.30;101483.31;5034421;28;20116;-53
2021/12/16 07:01:12;;;;;;;2.92;1.90;;;;;;;8.86;98.23;101491.19;5041683;28;20030;-49
2021/12/16 07:03:48;;;;;;;2.53;1.60;;;;;;;8.80;98.26;101495.50;5035543;28;20465;-48
2021/12/16 07:06:23;;;;;;;2.63;1.73;;;;;;;8.63;99.11;101512.06;5034087;28;20045;-51
2021/12/16 07:08:52;;;;;;;2.95;1.98;;;;;;;8.75;98.81;101507.75;5042520;28;20500;-50
2021/12/16 07:11:18;;;;;;;4.57;2.33;;;;;;;8.82;98.38;101512.13;5043623;28;20036;-51
2021/12/16 07:13:55;;;;;;;3.08;1.85;;;;;;;8.87;97.67;101502.53;5038430;28;20037;-48
2021/12/16 07:16:22;;;;;;;3.50;2.47;;;;;;;8.69;98.43;101508.56;5046511;28;20075;-50
2021/12/16 07:18:47;;;;;;;3.63;2.55;;;;;;;8.75;98.40;101489.41;5035087;28;20029;-49
2021/12/16 07:21:13;;;;;;;6.65;3.95;;;;;;;8.72;98.63;101507.72;5045807;28;20040;-48
2021/12/16 07:23:38;;;;;;;6.78;5.97;;;;;;;8.57;99.26;101508.53;5034006;28;20038;-49
2021/12/16 07:26:04;;;;;;;8.68;7.63;;;;;;;8.82;98.02;101499.03;5035166;28;20033;-53
2021/12/16 07:28:29;;;;;;;5.00;3.55;;;;;;;8.87;97.74;101497.28;5038566;28;20084;-50
2021/12/16 07:30:55;;;;;;;2.45;1.80;;;;;;;8.75;97.99;101518.22;5036144;28;20373;-51
2021/12/16 07:33:21;;;;;;;2.97;1.67;;;;;;;8.74;97.87;101522.59;5030481;28;20029;-50
2021/12/16 07:35:48;;;;;;;2.40;1.50;;;;;;;8.71;98.25;101519.94;5049054;28;20400;-52
2021/12/16 07:38:13;;;;;;;1.90;1.15;;;;;;;8.62;97.92;101523.41;5042329;28;20477;-50
2021/12/16 07:40:41;;;;;;;2.10;1.27;;;;;;;8.71;98.17;101508.59;5045717;28;20115;-50
2021/12/16 07:45:43;;;;;;;1.27;0.90;;;;;;;8.79;95.85;101515.63;5054041;28;20059;-49
2021/12/16 07:48:11;;;;;;;2.13;1.10;;;;;;;8.76;95.47;101518.22;5054578;28;20036;-50
2021/12/16 07:50:39;;;;;;;2.25;1.20;;;;;;;8.88;95.32;101517.38;5052957;28;20025;-52
2021/12/16 07:53:05;;;;;;;1.63;1.08;;;;;;;8.99;94.16;101513.06;5054502;28;20029;-51
2021/12/16 07:55:32;;;;;;;2.83;1.23;;;;;;;8.96;93.85;101523.53;5045472;28;20396;-51
2021/12/16 07:57:57;;;;;;;2.55;1.40;;;;;;;8.89;94.00;101538.34;5043441;28;20048;-49
2021/12/16 08:00:27;;;;;;;2.95;1.55;;;;;;;8.84;93.82;101547.06;5053069;28;20040;-49
2021/12/16 08:02:53;;;;;;;1.35;1.02;;;;;;;8.96;93.28;101543.63;5040296;28;20037;-48
2021/12/16 08:05:24;;;;;;;2.67;1.30;;;;;;;8.97;92.49;101550.59;5051700;28;20047;-48
2021/12/16 08:07:49;;;;;;;3.13;1.73;;;;;;;8.96;91.71;101554.97;5034459;28;20033;-48
2021/12/16 08:10:19;;;;;;;1.77;1.13;;;;;;;8.83;91.07;101545.31;5037976;28;20064;-48
2021/12/16 08:12:45;;;;;;;2.38;0.93;;;;;;;8.90;91.00;101544.50;5045006;28;20048;-50
2021/12/16 08:15:10;;;;;;;1.50;0.70;;;;;;;8.91;90.36;101548.84;5032967;28;20408;-50
2021/12/16 08:17:36;;;;;;;3.00;1.27;;;;;;;8.94;89.26;101546.25;5045338;28;20036;-49
2021/12/16 08:20:07;;;;;;;2.90;1.30;;;;;;;8.88;88.00;101544.47;5050342;28;20036;-48
2021/12/16 08:22:33;;;;;;;1.67;0.90;;;;;;;8.89;87.19;101547.97;5052113;28;20029;-49
2021/12/16 08:24:58;;;;;;;2.55;1.02;;;;;;;9.00;86.77;101535.78;5041118;28;20039;-50
2021/12/16 08:27:24;;;;;;;4.55;1.08;;;;;;;9.01;86.17;101537.50;5044830;28;20091;-51
2021/12/16 08:29:50;;;;;;;2.50;1.23;;;;;;;9.02;85.51;101531.44;5033543;28;20041;-52
2021/12/16 08:32:15;;;;;;;3.55;1.50;;;;;;;8.99;84.73;101538.41;5046535;28;20061;-53
2021/12/16 08:34:45;;;;;;;3.63;1.35;;;;;;;8.96;83.49;101538.38;5044444;28;20102;-50
2021/12/16 08:37:13;;;;;;;2.38;1.27;;;;;;;8.86;83.32;101538.34;5033935;28;20124;-52
2021/12/16 08:39:40;;;;;;;2.83;1.40;;;;;;;8.88;83.35;101541.84;5040529;28;20025;-51
2021/12/16 08:42:09;;;;;;;3.88;1.90;;;;;;;8.91;83.66;101527.88;5043211;28;20472;-50
2021/12/16 08:44:35;;;;;;;2.05;1.17;;;;;;;9.01;83.94;101516.53;5037403;28;20041;-50
2021/12/16 08:47:05;;;;;;;3.05;1.45;;;;;;;8.88;84.28;101522.63;5037836;28;20033;-52
2021/12/16 08:49:31;;;;;;;2.97;1.20;;;;;;;8.88;84.35;101525.25;5032233;28;20033;-54
2021/12/16 08:52:04;;;;;;;2.95;1.30;;;;;;;8.71;83.34;101540.03;5023357;28;20103;-48
2021/12/16 08:54:30;;;;;;;2.33;1.13;;;;;;;8.58;83.76;101529.50;5042330;28;20119;-49
2021/12/16 08:56:55;;;;;;;1.60;0.93;;;;;;;8.71;83.89;101534.78;5038096;28;20137;-52
2021/12/16 08:59:21;;;;;;;2.72;1.40;;;;;;;8.66;83.58;101534.78;5033562;28;20021;-50
2021/12/16 09:01:50;;;;;;;3.15;1.02;;;;;;;8.63;83.26;101567.06;5045626;28;20526;-51
2021/12/16 09:04:19;;;;;;;5.43;1.75;;;;;;;8.75;82.31;101562.78;5040906;28;20033;-52
2021/12/16 09:06:44;;;;;;;7.68;2.47;;;;;;;8.78;81.15;101558.41;5033613;28;20086;-51
2021/12/16 09:09:10;;;;;;;7.25;3.10;;;;;;;8.96;80.31;101560.22;5044695;28;20037;-53
2021/12/16 09:11:45;;;;;;;6.22;2.25;;;;;;;9.06;79.45;101572.50;5049564;28;20178;-49
2021/12/16 09:14:11;;;;;;;8.48;3.20;;;;;;;9.05;79.26;101565.50;5038703;28;20041;-51
2021/12/16 09:16:37;;;;;;;4.25;1.77;;;;;;;9.08;78.32;101578.63;5048592;28;20476;-49
2021/12/16 09:19:06;;;;;;;6.45;2.42;;;;;;;9.09;78.63;101555.88;5030843;28;20036;-49
2021/12/16 09:21:34;;;;;;;6.85;2.17;;;;;;;9.14;77.97;101562.06;5036843;28;20076;-51
2021/12/16 09:24:00;;;;;;;5.78;1.95;;;;;;;9.13;77.56;101563.75;5039848;28;20425;-52
2021/12/16 09:26:26;;;;;;;6.82;1.90;;;;;;;9.05;77.16;101581.22;5050611;28;20110;-51
2021/12/16 09:28:53;;;;;;;4.47;1.40;;;;;;;9.10;77.45;101562.91;5040848;28;20056;-49
2021/12/16 09:31:24;;;;;;;3.72;1.48;;;;;;;9.18;76.66;101570.81;5023314;28;20029;-50
2021/12/16 09:33:51;;;;;;;5.07;1.90;;;;;;;9.28;76.42;101593.53;5039148;28;20045;-53
2021/12/16 09:36:20;;;;;;;5.35;1.88;;;;;;;9.30;77.15;101581.31;5026019;28;20029;-51
2021/12/16 09:38:47;;;;;;;7.05;2.20;;;;;;;9.36;77.04;101581.31;5055455;28;20036;-52
2021/12/16 09:41:14;;;;;;;4.32;1.90;;;;;;;9.28;77.41;101604.03;5047658;28;20037;-51
2021/12/16 09:43:44;;;;;;;7.05;2.28;;;;;;;9.13;77.80;101579.50;5056614;28;20049;-47
2021/12/16 09:46:14;;;;;;;5.15;1.50;;;;;;;9.00;78.11;101550.63;5041023;28;20033;-52
2021/12/16 09:48:41;;;;;;;3.20;0.90;;;;;;;8.64;79.42;101560.94;5035362;28;20469;-50
2021/12/16 09:51:09;;;;;;;5.10;2.40;;;;;;;8.61;79.86;101574.03;5043999;28;20075;-54
2021/12/16 09:53:39;;;;;;;6.43;2.00;;;;;;;8.76;79.44;101568.00;5036394;28;20152;-49
2021/12/16 09:56:09;;;;;;;5.70;1.98;;;;;;;8.94;79.18;101553.25;5036814;28;20487;-50
2021/12/16 09:58:42;;;;;;;4.45;1.48;;;;;;;8.84;79.35;101576.78;5051825;28;20033;-51
2021/12/16 10:01:10;;;;;;;5.25;1.50;;;;;;;8.87;79.08;101576.78;5035815;28;20034;-53
2021/12/16 10:03:38;;;;;;;4.20;1.80;;;;;;;9.05;78.64;101562.88;5040734;28;20033;-49
2021/12/16 10:06:05;;;;;;;4.30;1.60;;;;;;;8.99;78.68;101559.38;5042915;28;20037;-49
2021/12/16 10:08:30;;;;;;;5.22;2.10;;;;;;;8.88;79.05;101561.94;5043735;28;20160;-48
2021/12/16 10:10:56;;;;;;;9.30;2.75;;;;;;;8.71;79.51;101556.63;5055981;28;20115;-50
2021/12/16 10:13:32;;;;;;;8.38;2.63;;;;;;;8.76;79.69;101541.78;5040269;28;20120;-52
2021/12/16 10:18:29;;;;;;;5.72;1.65;;;;;;;8.74;79.88;101534.81;5051250;28;20460;-49
2021/12/16 10:21:00;;;;;;;4.68;1.70;;;;;;;8.83;79.50;101546.19;5050864;28;20052;-50
2021/12/16 10:23:36;;;;;;;3.00;1.30;;;;;;;8.96;78.63;101543.63;5046537;28;20042;-52
2021/12/16 10:26:08;;;;;;;5.72;2.20;;;;;;;9.08;78.18;101541.03;5052689;28;20033;-49
2021/12/16 10:28:46;;;;;;;4.20;1.52;;;;;;;9.13;76.75;101568.13;5049480;28;20053;-50
2021/12/16 10:31:16;;;;;;;4.78;1.77;;;;;;;9.22;76.79;101531.47;5051353;28;20109;-52
2021/12/16 10:34:10;;;;;;;5.95;2.33;;;;;;;9.25;76.21;101544.56;5053466;28;20051;-52
2021/12/16 10:36:39;;;;;;;6.53;2.40;;;;;;;9.31;76.21;101546.34;5043535;28;20053;-54
2021/12/16 10:39:08;;;;;;;6.18;2.85;;;;;;;9.35;74.67;101543.72;5034035;28;20033;-50
2021/12/16 10:41:40;;;;;;;5.70;2.00;;;;;;;9.42;75.03;101547.25;5033000;28;20172;-48
2021/12/16 10:44:17;;;;;;;6.60;2.60;;;;;;;9.35;74.16;101517.50;5034633;28;20033;-53
2021/12/16 10:46:49;;;;;;;5.35;1.63;;;;;;;9.40;74.06;101527.13;5032979;28;20030;-53
2021/12/16 10:49:25;;;;;;;4.47;1.73;;;;;;;9.43;74.02;101525.38;5037393;28;20106;-53
2021/12/16 10:51:54;;;;;;;6.20;2.13;;;;;;;9.39;74.25;101534.13;5054163;28;20044;-50
2021/12/16 10:54:29;;;;;;;8.55;2.25;;;;;;;9.35;73.66;101524.50;5045306;28;20427;-50
2021/12/16 10:57:13;;;;;;;7.05;2.05;;;;;;;9.48;73.70;101534.13;5035609;28;20041;-50
2021/12/16 10:59:44;;;;;;;6.88;1.67;;;;;;;9.36;73.61;101552.47;5036780;28;20358;-48
2021/12/16 11:02:21;;;;;;;3.45;1.55;;;;;;;9.24;74.17;101547.19;5051839;28;20040;-53
2021/12/16 11:05:00;;;;;;;5.25;1.70;;;;;;;9.32;73.50;101548.09;5045546;28;20385;-52
2021/12/16 11:07:42;;;;;;;6.07;1.80;;;;;;;9.22;74.09;101554.22;5049311;28;20036;-52
2021/12/16 11:10:29;;;;;;;5.80;1.75;;;;;;;9.18;73.93;101549.81;5053183;28;20055;-50
2021/12/16 11:12:58;;;;;;;6.57;2.40;;;;;;;9.18;73.77;101555.06;5035343;28;20037;-48
2021/12/16 11:15:36;;;;;;;7.15;2.20;;;;;;;9.14;73.89;101548.94;5052626;28;20033;-52
2021/12/16 11:18:14;;;;;;;5.70;2.10;;;;;;;9.32;74.06;101548.97;5055318;28;20104;-52
2021/12/16 11:20:43;;;;;;;5.10;1.63;;;;;;;9.19;73.79;101530.59;5053181;28;20446;-51
2021/12/16 11:23:11;;;;;;;4.70;1.77;;;;;;;9.36;73.85;101518.38;5054434;28;20041;-51
2021/12/16 11:25:38;;;;;;;8.00;2.13;;;;;;;9.38;73.76;101500.91;5051047;28;20037;-51
2021/12/16 11:28:24;;;;;;;7.43;1.77;;;;;;;9.26;74.00;101503.50;5055106;28;20071;-49
2021/12/16 11:30:57;;;;;;;3.65;1.25;;;;;;;9.24;74.13;101523.59;5051580;28;20029;-49
2021/12/16 11:33:28;;;;;;;6.68;1.50;;;;;;;9.15;73.40;101534.94;5041038;28;20037;-49
2021/12/16 11:36:14;;;;;;;5.80;1.85;;;;;;;9.06;73.02;101527.94;5043827;28;20044;-52
2021/12/16 11:38:44;;;;;;;8.23;2.83;;;;;;;9.02;73.85;101527.94;5033902;28;20030;-51
2021/12/16 11:41:24;;;;;;;7.47;1.75;;;;;;;8.89;73.60;101550.56;5034932;28;20036;-52
2021/12/16 11:43:58;;;;;;;9.75;2.85;;;;;;;8.87;73.91;101540.09;5039781;28;20029;-50
2021/12/16 11:46:42;;;;;;;10.82;2.97;;;;;;;8.86;73.47;101540.09;5039121;28;20040;-47
2021/12/16 11:49:22;;;;;;;11.43;2.95;;;;;;;8.84;74.05;101539.22;5040706;28;20037;-51
2021/12/16 11:52:10;;;;;;;8.07;2.90;;;;;;;8.95;74.03;101548.00;5052500;28;20025;-52
2021/12/16 11:54:53;;;;;;;7.93;2.70;;;;;;;8.96;73.55;101549.75;5054168;28;20086;-51
2021/12/16 11:57:27;;;;;;;8.68;2.83;;;;;;;9.03;73.50;101561.13;5037237;28;20396;-49
2021/12/16 12:00:20;;;;;;;6.35;2.53;;;;;;;8.88;72.94;101557.56;5035763;28;20041;-50
2021/12/16 12:02:53;;;;;;;;;;;;;;;8.82;73.21;101577.66;5048224;28;20570;-51
2021/12/16 12:05:37;;;;;;;8.35;1.95;;;;;;;8.81;72.99;101602.97;5041924;28;20261;-53
2021/12/16 12:08:05;;;;;;;10.75;2.97;;;;;;;8.72;73.52;101609.91;5042278;28;20116;-50
2021/12/16 12:10:42;;;;;;;6.97;2.83;;;;;;;8.80;73.58;101598.59;5045784;28;20112;-52
2021/12/16 12:13:13;;;;;;;9.02;2.83;;;;;;;8.79;73.62;101606.47;5065895;28;20044;-51
2021/12/16 12:15:57;;;;;;;8.07;2.90;;;;;;;8.79;73.87;101612.56;5042574;28;20040;-50
2021/12/16 12:18:44;;;;;;;6.90;3.25;;;;;;;8.78;73.98;101617.81;5034318;28;20033;-51
2021/12/16 12:21:31;;;;;;;8.70;3.30;;;;;;;8.73;73.97;101620.38;5034298;28;20108;-49
2021/12/16 12:23:59;;;;;;;8.15;2.30;;;;;;;8.61;74.50;101626.44;5034267;28;20465;-50
2021/12/16 12:26:27;;;;;;;8.15;3.20;;;;;;;8.57;74.74;101635.13;5044648;28;20033;-50
2021/12/16 12:29:00;;;;;;;8.40;2.67;;;;;;;8.52;75.04;101621.16;5053913;28;20056;-51
2021/12/16 12:31:29;;;;;;;8.45;3.00;;;;;;;8.75;74.26;101621.28;5054030;28;20040;-49
2021/12/16 12:33:56;;;;;;;9.68;3.13;;;;;;;8.55;74.38;101615.06;5052563;28;20484;-49
2021/12/16 12:36:22;;;;;;;8.38;2.97;;;;;;;8.55;74.14;101615.94;5033391;28;20065;-52
2021/12/16 12:38:48;;;;;;;9.45;3.20;;;;;;;8.58;74.00;101623.81;5034281;28;20037;-52
2021/12/16 12:41:14;;;;;;;10.23;3.80;;;;;;;8.55;74.01;101588.88;5034087;28;20381;-48
2021/12/16 12:43:40;;;;;;;8.82;3.35;;;;;;;8.54;74.18;101587.13;5032514;28;20503;-49
2021/12/16 12:46:10;;;;;;;6.80;2.78;;;;;;;8.47;74.42;101580.97;5033888;28;20041;-50
2021/12/16 12:48:38;;;;;;;7.70;2.00;;;;;;;8.38;74.61;101565.19;5032156;28;20029;-51
2021/12/16 12:51:05;;;;;;;6.55;1.90;;;;;;;8.31;74.74;101561.63;5032589;28;20053;-49
2021/12/16 12:53:49;;;;;;;7.35;2.55;;;;;;;8.39;74.58;101559.94;5032500;28;20044;-51
2021/12/16 12:56:29;;;;;;;7.82;2.40;;;;;;;8.35;75.00;101538.94;5033887;28;20029;-49
2021/12/16 12:58:58;;;;;;;7.93;2.03;;;;;;;8.28;75.15;101524.06;5032189;28;20021;-49
2021/12/16 13:01:56;;;;;;;8.68;2.00;;;;;;;8.18;75.06;101546.69;5033644;28;20041;-50
2021/12/16 13:04:26;;;;;;;7.53;2.20;;;;;;;8.26;74.97;101562.44;5032089;28;20037;-49
2021/12/16 13:07:02;;;;;;;8.40;2.33;;;;;;;8.22;74.45;101577.28;5032162;28;20037;-52
2021/12/16 13:09:47;;;;;;;8.02;2.30;;;;;;;8.28;74.71;101593.00;5032500;28;20056;-48
2021/12/16 13:12:42;;;;;;;9.40;2.78;;;;;;;8.12;75.01;101583.28;5033774;28;20079;-53
2021/12/16 13:15:27;;;;;;;11.27;2.97;;;;;;;8.07;75.47;101582.41;5033709;28;20029;-49
2021/12/16 13:23:45;;;;;;;11.93;3.35;;;;;;;7.85;76.93;101602.25;5033419;28;20056;-52
2021/12/16 13:29:41;;;;;;;16.17;3.40;;;;;;;7.90;76.96;101582.25;5052801;28;20052;-51
2021/12/16 13:32:15;;;;;;;9.70;2.95;;;;;;;7.96;77.07;101597.13;5035336;28;20038;-50
2021/12/16 13:35:46;;;;;;;11.93;4.75;;;;;;;7.95;77.03;101595.38;5042804;28;20025;-53
2021/12/16 13:37:46;;;;;;;10.57;4.20;;;;;;;7.90;77.18;101587.50;5052356;28;20049;-50
2021/12/16 13:40:14;;;;;;;12.15;3.38;;;;;;;7.96;76.70;101587.53;5052905;28;20125;-53
2021/12/16 13:43:05;;;;;;;13.70;4.03;;;;;;;7.92;76.91;101588.38;5053139;28;20040;-56
2021/12/16 13:45:54;;;;;;;12.98;4.57;;;;;;;7.76;77.45;101589.09;5052833;28;20077;-50
2021/12/16 14:05:48;;;;;;;9.35;3.30;;;;;;;7.59;79.73;101574.13;5052783;28;20487;-52
2021/12/16 14:08:34;;;;;;;11.25;3.42;;;;;;;7.62;79.41;101571.56;5052787;28;20510;-50
2021/12/16 14:11:15;;;;;;;13.52;3.50;;;;;;;7.72;79.21;101569.00;5052633;28;20579;-51
2021/12/16 14:16:35;;;;;;;10.35;3.17;;;;;;;7.73;79.00;101581.22;5052552;28;20037;-52
2021/12/16 14:42:04;;;;;;;14.35;5.72;;;;;;;7.50;80.44;101636.81;5067736;28;20056;-52
2021/12/16 14:47:29;;;;;;;15.63;4.77;;;;;;;7.52;80.07;101653.38;5042115;28;20037;-51
2021/12/16 14:49:56;;;;;;;11.48;4.15;;;;;;;7.69;79.35;101650.94;5035117;28;20535;-51
2021/12/16 14:52:25;;;;;;;13.00;4.90;;;;;;;7.56;79.97;101655.19;5034410;28;20091;-48
2021/12/16 14:54:54;;;;;;;15.18;5.75;;;;;;;7.58;79.97;101661.31;5034462;28;20029;-49
2021/12/16 14:57:23;;;;;;;13.68;4.03;;;;;;;7.51;80.25;101671.69;5034367;28;20388;-52
2021/12/16 14:59:49;;;;;;;13.98;4.07;;;;;;;7.72;79.53;101660.56;5034077;28;20117;-50
2021/12/16 15:02:16;;;;;;;14.88;4.70;;;;;;;7.73;79.21;101667.56;5035677;28;20037;-52
2021/12/16 15:04:42;;;;;;;12.63;3.97;;;;;;;7.80;78.68;101658.91;5035530;28;20091;-52
2021/12/16 15:07:10;;;;;;;16.70;5.70;;;;;;;7.74;78.57;101666.69;5034237;28;20447;-49
2021/12/16 15:09:40;;;;;;;15.65;4.20;;;;;;;7.44;79.35;101675.97;5033077;28;20449;-50
2021/12/16 15:12:40;;;;;;;12.32;3.78;;;;;;;7.54;78.99;101667.38;5033511;28;20136;-52